Time;durP1;ratioP1;P1;durP2;ratioP2;P2;SDS_P1;SDS_P2;PMS_P1;PMS_P2;Temp;Humidity;BMP_temperature;BMP_pressure;BME280_temperature;BME280_humidity;BME280_pressure;Samples;Min_cycle;Max_cycle;Signal;HPM_P1;HPM_P2
2022/05/25 00:01:06;;;;;;;9.77;7.80;;;14.80;88.90;;;;;;5052277;28;20195;-78
2022/05/25 00:03:36;;;;;;;8.47;7.53;;;15.00;89.60;;;;;;5057756;28;20190;-79
2022/05/25 00:06:08;;;;;;;8.77;7.30;;;15.20;89.40;;;;;;5062058;28;20234;-76
2022/05/25 00:08:36;;;;;;;11.97;6.97;;;15.30;88.80;;;;;;5070191;28;20176;-78
2022/05/25 00:11:03;;;;;;;10.97;8.87;;;15.50;88.40;;;;;;5088175;28;20190;-77
2022/05/25 00:13:31;;;;;;;11.23;6.93;;;15.60;88.10;;;;;;5076035;28;20183;-76
2022/05/25 00:15:58;;;;;;;10.63;7.03;;;15.70;87.60;;;;;;5072811;28;20206;-80
2022/05/25 00:18:26;;;;;;;9.50;6.07;;;15.80;87.40;;;;;;5066576;28;20175;-79
2022/05/25 00:20:53;;;;;;;8.93;6.50;;;15.90;87.00;;;;;;5074883;28;20186;-79
2022/05/25 00:23:21;;;;;;;11.30;5.77;;;16.00;87.00;;;;;;5079387;28;20179;-81
2022/05/25 00:25:48;;;;;;;9.93;6.20;;;16.20;86.60;;;;;;5082259;28;20293;-78
2022/05/25 00:28:16;;;;;;;5.40;4.90;;;16.30;86.20;;;;;;5092349;28;20249;-83
2022/05/25 00:30:46;;;;;;;7.40;4.60;;;16.30;85.60;;;;;;5090868;28;20218;-76
2022/05/25 00:33:14;;;;;;;5.53;4.60;;;16.40;85.30;;;;;;5073899;28;20652;-80
2022/05/25 00:35:42;;;;;;;7.97;5.57;;;16.50;85.40;;;;;;5072664;28;20516;-76
2022/05/25 00:38:10;;;;;;;6.60;4.07;;;16.60;84.70;;;;;;5072250;28;20185;-80
2022/05/25 00:40:43;;;;;;;6.37;3.33;;;16.70;84.20;;;;;;5074435;28;20201;-82
2022/05/25 00:43:12;;;;;;;6.80;3.63;;;16.70;83.30;;;;;;5059128;28;20223;-84
2022/05/25 00:45:52;;;;;;;8.50;3.80;;;16.80;83.40;;;;;;5064511;28;20221;-82
2022/05/25 00:48:44;;;;;;;5.03;3.60;;;16.90;83.10;;;;;;5071914;28;20640;-84
2022/05/25 00:51:15;;;;;;;4.43;3.33;;;17.00;83.10;;;;;;5074307;28;20197;-83
2022/05/25 00:53:49;;;;;;;7.03;3.00;;;17.20;82.60;;;;;;5072911;28;20176;-81
2022/05/25 00:56:19;;;;;;;5.37;3.00;;;17.30;81.60;;;;;;5075537;28;20188;-82
2022/05/25 00:59:08;;;;;;;3.47;2.40;;;17.50;81.60;;;;;;5072736;28;20191;-87
2022/05/25 01:01:36;;;;;;;6.77;2.70;;;17.60;80.40;;;;;;5067776;28;20251;-81
2022/05/25 01:04:04;;;;;;;4.47;2.63;;;17.70;80.10;;;;;;5072458;28;20300;-85
2022/05/25 01:07:07;;;;;;;3.50;2.47;;;17.80;81.10;;;;;;5071500;28;20545;-86
2022/05/25 01:09:46;;;;;;;3.27;2.40;;;18.10;79.60;;;;;;5074910;28;20181;-88
2022/05/25 01:12:37;;;;;;;4.73;2.60;;;18.30;79.60;;;;;;5075335;28;20657;-84
2022/05/25 01:15:34;;;;;;;3.47;2.07;;;18.40;77.80;;;;;;5085663;28;20673;-85
2022/05/25 01:18:22;;;;;;;4.43;2.00;;;18.50;76.70;;;;;;5088063;28;20199;-81
2022/05/25 01:21:14;;;;;;;3.23;1.80;;;18.60;77.30;;;;;;5086995;28;20194;-84
2022/05/25 01:23:54;;;;;;;3.93;1.70;;;18.80;75.80;;;;;;5076162;28;20192;-91
2022/05/25 01:26:55;;;;;;;2.87;1.30;;;19.00;73.50;;;;;;5084420;28;20252;-85
2022/05/25 01:29:55;;;;;;;2.53;1.30;;;19.20;71.20;;;;;;5088575;28;20539;-89
2022/05/25 01:32:41;;;;;;;4.27;1.70;;;19.30;70.00;;;;;;5066652;28;20198;-88
2022/05/25 01:35:31;;;;;;;4.80;1.73;;;19.60;71.20;;;;;;5073554;28;20180;-90
2022/05/25 01:38:16;;;;;;;5.40;1.93;;;19.60;70.50;;;;;;5069914;28;20178;-83
2022/05/25 01:41:09;;;;;;;3.30;1.57;;;19.80;70.50;;;;;;5074478;28;20218;-82
2022/05/25 01:44:02;;;;;;;4.80;1.90;;;20.10;69.90;;;;;;5070606;28;20250;-82
2022/05/25 01:46:41;;;;;;;5.10;1.67;;;20.50;69.60;;;;;;5073108;28;20191;-86
2022/05/25 01:49:14;;;;;;;5.50;1.57;;;21.00;66.70;;;;;;5075553;28;20265;-85
2022/05/25 01:51:51;;;;;;;3.97;1.80;;;21.10;66.10;;;;;;5077904;28;20175;-85
2022/05/25 01:54:22;;;;;;;5.83;1.97;;;21.10;65.90;;;;;;5069546;28;20234;-83
2022/05/25 01:56:54;;;;;;;5.27;3.47;;;20.80;66.40;;;;;;5069975;28;20258;-81
2022/05/25 01:59:22;;;;;;;5.70;2.47;;;20.70;67.00;;;;;;5072921;28;20186;-84
2022/05/25 02:04:45;;;;;;;4.13;1.40;;;20.60;68.30;;;;;;5071809;28;20202;-85
2022/05/25 02:07:25;;;;;;;2.03;1.20;;;20.90;65.60;;;;;;5078961;28;20761;-83
2022/05/25 02:10:10;;;;;;;3.93;1.87;;;21.30;64.10;;;;;;5066795;28;20179;-80
2022/05/25 02:13:04;;;;;;;2.23;1.20;;;21.80;61.80;;;;;;5071655;28;20183;-80
2022/05/25 02:15:37;;;;;;;5.00;1.57;;;21.40;63.10;;;;;;5065508;28;20207;-80
2022/05/25 02:18:42;;;;;;;7.00;5.03;;;21.10;66.20;;;;;;5068930;28;20187;-79
2022/05/25 02:21:29;;;;;;;7.10;4.27;;;20.60;68.70;;;;;;5066822;28;20546;-82
2022/05/25 02:24:09;;;;;;;3.70;2.23;;;20.30;69.90;;;;;;5062118;28;20183;-81
2022/05/25 02:27:00;;;;;;;5.07;1.70;;;19.90;70.20;;;;;;5072002;28;20183;-78
2022/05/25 02:29:53;;;;;;;10.23;6.40;;;19.50;72.00;;;;;;5071676;28;20258;-78
2022/05/25 02:32:52;;;;;;;3.43;2.40;;;19.30;71.30;;;;;;5071622;28;20684;-79
2022/05/25 02:35:22;;;;;;;4.77;1.50;;;19.10;72.80;;;;;;5073511;28;20175;-79
2022/05/25 02:37:51;;;;;;;6.57;1.50;;;19.20;74.20;;;;;;5073675;28;20178;-79
2022/05/25 02:40:19;;;;;;;1.83;0.90;;;19.00;74.00;;;;;;5070344;28;20171;-79
2022/05/25 02:42:46;;;;;;;2.57;1.00;;;19.10;73.80;;;;;;5068364;28;20270;-82
2022/05/25 02:45:14;;;;;;;1.67;0.70;;;19.20;72.40;;;;;;5053322;28;20204;-79
2022/05/25 02:47:42;;;;;;;4.60;1.03;;;19.30;71.00;;;;;;5054076;28;20198;-79
2022/05/25 02:50:10;;;;;;;3.13;0.93;;;20.00;70.70;;;;;;5052726;28;20180;-80
2022/05/25 02:52:37;;;;;;;2.63;0.93;;;20.70;68.00;;;;;;5063890;28;20271;-77
2022/05/25 02:55:06;;;;;;;3.23;1.00;;;21.20;64.70;;;;;;5073597;28;20167;-77
2022/05/25 02:57:33;;;;;;;1.57;0.80;;;20.80;65.10;;;;;;5073419;28;20266;-78
2022/05/25 03:00:01;;;;;;;2.93;0.80;;;20.80;67.00;;;;;;5073710;28;20194;-79
2022/05/25 03:02:28;;;;;;;1.37;0.87;;;21.00;66.00;;;;;;5073412;28;20167;-83
2022/05/25 03:04:56;;;;;;;2.90;0.80;;;20.80;63.50;;;;;;5073458;28;20206;-80
2022/05/25 03:07:23;;;;;;;2.80;1.17;;;21.10;64.10;;;;;;5073749;28;20566;-79
2022/05/25 03:09:51;;;;;;;2.47;0.67;;;21.10;64.10;;;;;;5073430;28;20187;-80
2022/05/25 03:12:18;;;;;;;2.90;1.23;;;21.00;63.70;;;;;;5073437;28;20178;-79
2022/05/25 03:14:46;;;;;;;3.23;1.30;;;20.90;63.50;;;;;;5074014;28;20175;-79
2022/05/25 03:17:14;;;;;;;2.33;1.00;;;20.60;64.80;;;;;;5071897;28;20581;-78
2022/05/25 03:19:48;;;;;;;2.60;0.83;;;20.60;64.80;;;;;;5064407;28;20618;-78
2022/05/25 03:22:16;;;;;;;2.63;1.10;;;21.00;64.50;;;;;;5062229;28;20171;-78
2022/05/25 03:24:43;;;;;;;3.47;0.93;;;21.50;62.80;;;;;;5073204;28;20286;-79
2022/05/25 03:27:10;;;;;;;2.83;0.80;;;21.90;60.60;;;;;;5073237;28;20171;-79
2022/05/25 03:29:38;;;;;;;3.47;1.10;;;22.20;59.80;;;;;;5073285;28;20184;-80
2022/05/25 03:32:05;;;;;;;3.37;1.00;;;22.30;59.50;;;;;;5072161;28;20211;-79
2022/05/25 03:34:33;;;;;;;1.83;1.00;;;22.80;59.60;;;;;;5073203;28;20686;-78
2022/05/25 03:37:00;;;;;;;2.40;1.10;;;22.50;59.80;;;;;;5073027;28;20171;-76
2022/05/25 03:39:28;;;;;;;4.10;1.33;;;22.80;60.10;;;;;;5072872;28;20178;-78
2022/05/25 03:42:04;;;;;;;2.93;1.10;;;23.30;58.30;;;;;;5072434;28;20175;-77
2022/05/25 03:44:32;;;;;;;3.10;1.17;;;22.90;58.90;;;;;;5072443;28;20314;-79
2022/05/25 03:46:59;;;;;;;2.47;1.20;;;22.00;61.40;;;;;;5072612;28;20258;-75
2022/05/25 03:49:27;;;;;;;2.57;1.40;;;22.00;61.70;;;;;;5072796;28;20164;-77
2022/05/25 03:51:54;;;;;;;2.67;1.20;;;21.90;63.00;;;;;;5072274;28;20266;-81
2022/05/25 03:54:22;;;;;;;5.30;1.13;;;21.90;62.30;;;;;;5071219;28;20172;-79
2022/05/25 03:56:49;;;;;;;2.60;1.00;;;21.80;63.40;;;;;;5071422;28;20187;-77
2022/05/25 03:59:17;;;;;;;3.80;1.23;;;22.00;63.00;;;;;;5072731;28;20171;-79
2022/05/25 04:01:44;;;;;;;4.23;1.20;;;22.10;63.10;;;;;;5072151;28;20224;-79
2022/05/25 04:04:12;;;;;;;4.07;1.57;;;21.90;63.10;;;;;;5072337;28;20163;-77
2022/05/25 04:06:39;;;;;;;2.83;1.20;;;21.70;64.20;;;;;;5072518;28;20551;-79
2022/05/25 04:09:09;;;;;;;3.87;1.37;;;21.60;65.40;;;;;;5061489;28;20221;-79
2022/05/25 04:11:41;;;;;;;5.50;1.23;;;21.80;65.00;;;;;;5052783;28;20489;-79
2022/05/25 04:14:09;;;;;;;2.77;1.00;;;22.20;63.20;;;;;;5052786;28;20191;-77
2022/05/25 04:16:36;;;;;;;4.90;1.10;;;22.40;62.10;;;;;;5052182;28;20168;-77
2022/05/25 04:19:04;;;;;;;4.63;1.20;;;22.30;62.40;;;;;;5052186;28;20191;-76
2022/05/25 04:21:31;;;;;;;3.53;1.00;;;22.00;63.10;;;;;;5054773;28;20273;-79
2022/05/25 04:23:58;;;;;;;5.97;1.07;;;22.10;61.70;;;;;;5072301;28;20166;-77
2022/05/25 04:26:26;;;;;;;4.13;1.10;;;21.70;63.50;;;;;;5072191;28;20787;-76
2022/05/25 04:28:53;;;;;;;3.30;1.20;;;21.00;64.80;;;;;;5072351;28;20180;-76
2022/05/25 04:31:22;;;;;;;5.77;1.00;;;20.50;67.10;;;;;;5071831;28;20190;-76
2022/05/25 04:33:49;;;;;;;6.83;1.20;;;20.30;67.80;;;;;;5072132;28;20163;-78
2022/05/25 04:36:16;;;;;;;4.70;1.27;;;20.10;68.60;;;;;;5072312;28;20622;-78
2022/05/25 04:38:43;;;;;;;3.27;1.10;;;20.00;68.80;;;;;;5072112;28;20179;-77
2022/05/25 04:41:11;;;;;;;2.13;0.80;;;19.80;69.40;;;;;;5071987;28;20175;-78
2022/05/25 04:43:38;;;;;;;2.33;0.87;;;20.30;68.20;;;;;;5072273;28;20231;-77
2022/05/25 04:46:13;;;;;;;4.87;1.00;;;20.30;68.00;;;;;;5075310;28;20285;-77
2022/05/25 04:48:41;;;;;;;2.13;0.70;;;20.60;66.30;;;;;;5075351;28;20656;-78
2022/05/25 04:51:08;;;;;;;1.20;0.60;;;20.40;65.00;;;;;;5075283;28;20171;-75
2022/05/25 04:53:35;;;;;;;1.80;0.60;;;20.50;63.70;;;;;;5074453;28;20191;-78
2022/05/25 04:58:49;;;;;;;2.97;0.70;;;20.80;63.50;;;;;;5074726;28;20179;-78
2022/05/25 05:01:19;;;;;;;2.67;1.00;;;20.80;64.50;;;;;;5073626;28;20687;-77
2022/05/25 05:03:47;;;;;;;2.47;0.80;;;20.80;66.00;;;;;;5074329;28;20634;-77
2022/05/25 05:06:15;;;;;;;1.53;0.57;;;21.10;64.90;;;;;;5074341;28;20234;-76
2022/05/25 05:08:42;;;;;;;2.07;0.90;;;21.20;64.60;;;;;;5067130;28;20172;-75
2022/05/25 05:11:12;;;;;;;3.47;0.60;;;21.20;65.10;;;;;;5055017;28;20187;-77
2022/05/25 05:13:41;;;;;;;3.27;0.80;;;20.80;66.40;;;;;;5055421;28;20251;-77
2022/05/25 05:16:16;;;;;;;1.70;0.77;;;20.40;67.20;;;;;;5054649;28;20176;-77
2022/05/25 05:18:44;;;;;;;2.00;0.80;;;20.00;69.10;;;;;;5055387;28;20207;-76
2022/05/25 05:21:12;;;;;;;4.73;1.10;;;19.80;70.20;;;;;;5055532;28;20168;-75
2022/05/25 05:23:41;;;;;;;1.17;0.67;;;19.50;71.50;;;;;;5055578;28;20647;-77
2022/05/25 05:26:09;;;;;;;5.40;0.80;;;19.70;70.90;;;;;;5055221;28;20211;-79
2022/05/25 05:28:40;;;;;;;1.80;0.87;;;20.00;70.50;;;;;;5055430;28;20538;-79
2022/05/25 05:31:09;;;;;;;4.63;0.90;;;20.80;68.30;;;;;;5054874;28;20184;-79
2022/05/25 05:33:37;;;;;;;1.37;0.73;;;21.50;65.40;;;;;;5054063;28;20180;-80
2022/05/25 05:36:07;;;;;;;2.27;0.90;;;22.20;63.40;;;;;;5054640;28;20176;-79
2022/05/25 05:38:41;;;;;;;1.50;0.83;;;22.80;62.90;;;;;;5054961;28;20551;-78
2022/05/25 05:41:10;;;;;;;2.70;0.77;;;23.30;60.00;;;;;;5054844;28;20189;-76
2022/05/25 05:43:38;;;;;;;2.27;0.60;;;22.70;61.60;;;;;;5071896;28;20227;-78
2022/05/25 05:46:06;;;;;;;3.50;0.87;;;22.90;60.70;;;;;;5085594;28;20249;-77
2022/05/25 05:48:36;;;;;;;2.33;1.37;;;22.30;61.00;;;;;;5064912;28;20656;-78
2022/05/25 05:51:05;;;;;;;2.63;1.07;;;22.60;61.70;;;;;;5064738;28;20191;-79
2022/05/25 05:53:33;;;;;;;2.17;0.77;;;22.30;61.40;;;;;;5074807;28;20544;-79
2022/05/25 05:56:01;;;;;;;5.93;1.40;;;22.30;60.70;;;;;;5058873;28;20180;-80
2022/05/25 05:58:29;;;;;;;2.30;0.80;;;21.80;62.40;;;;;;5073568;28;20176;-80
2022/05/25 06:00:56;;;;;;;2.50;1.00;;;21.50;62.80;;;;;;5073201;28;20178;-80
2022/05/25 06:03:24;;;;;;;1.13;0.60;;;20.80;64.80;;;;;;5090657;28;20578;-79
2022/05/25 06:05:51;;;;;;;1.37;0.60;;;20.50;66.10;;;;;;5092102;28;20213;-78
2022/05/25 06:08:23;;;;;;;2.43;0.77;;;20.20;66.80;;;;;;5069222;28;20695;-78
2022/05/25 06:10:50;;;;;;;1.63;0.63;;;19.80;68.10;;;;;;5072752;28;20645;-78
2022/05/25 06:13:18;;;;;;;2.73;0.60;;;19.60;69.70;;;;;;5074427;28;20171;-78
2022/05/25 06:21:22;;;;;;;3.53;0.80;;;18.80;72.00;;;;;;5073865;28;20181;-75
2022/05/25 06:23:50;;;;;;;1.70;0.57;;;18.70;72.20;;;;;;5072824;28;20188;-77
2022/05/25 06:26:19;;;;;;;2.97;0.83;;;18.60;73.50;;;;;;5067862;28;20218;-78
2022/05/25 06:28:46;;;;;;;2.37;0.87;;;18.50;73.80;;;;;;5073435;28;20266;-77
2022/05/25 06:31:14;;;;;;;2.00;0.90;;;18.40;74.10;;;;;;5071864;28;20178;-78
2022/05/25 06:33:43;;;;;;;3.10;0.90;;;18.30;74.60;;;;;;5090372;28;20558;-79
2022/05/25 06:36:16;;;;;;;4.90;0.70;;;18.30;74.60;;;;;;5093923;28;20177;-79
2022/05/25 06:38:44;;;;;;;2.03;0.70;;;18.30;75.10;;;;;;5072529;28;20191;-79
2022/05/25 06:41:11;;;;;;;4.83;0.90;;;18.10;75.20;;;;;;5072960;28;20174;-78
2022/05/25 06:43:39;;;;;;;3.00;1.00;;;18.00;76.10;;;;;;5072970;28;20230;-76
2022/05/25 06:46:07;;;;;;;3.17;1.10;;;17.90;76.50;;;;;;5052684;28;20218;-78
2022/05/25 06:48:35;;;;;;;2.20;1.10;;;17.80;76.80;;;;;;5066085;28;20175;-77
2022/05/25 06:51:13;;;;;;;2.40;0.90;;;17.70;77.50;;;;;;5073751;28;20519;-76
2022/05/25 06:53:41;;;;;;;2.57;1.10;;;17.50;78.40;;;;;;5077213;28;20522;-77
2022/05/25 06:56:09;;;;;;;2.23;0.93;;;17.40;78.80;;;;;;5073417;28;20177;-77
2022/05/25 06:58:37;;;;;;;3.43;0.93;;;17.30;79.90;;;;;;5077136;28;20514;-76
2022/05/25 07:01:05;;;;;;;4.10;1.20;;;17.20;80.60;;;;;;5072222;28;20523;-76
2022/05/25 07:03:32;;;;;;;2.30;1.20;;;17.10;81.20;;;;;;5073356;28;20175;-79
2022/05/25 07:06:03;;;;;;;3.63;1.20;;;17.00;81.80;;;;;;5067304;28;20685;-77
2022/05/25 07:08:31;;;;;;;4.33;1.10;;;16.90;82.10;;;;;;5071894;28;20179;-80
2022/05/25 07:11:00;;;;;;;2.13;1.27;;;16.90;82.70;;;;;;5073085;28;20178;-78
2022/05/25 07:13:29;;;;;;;4.53;1.30;;;16.80;83.00;;;;;;5073119;28;20593;-77
2022/05/25 07:16:02;;;;;;;4.47;1.60;;;16.80;83.50;;;;;;5081539;28;20173;-77
2022/05/25 07:18:30;;;;;;;3.90;1.90;;;16.70;83.80;;;;;;5081451;28;20270;-77
2022/05/25 07:21:21;;;;;;;5.10;2.00;;;16.70;84.30;;;;;;5063747;28;20677;-78
2022/05/25 07:23:50;;;;;;;5.03;2.23;;;16.60;84.50;;;;;;5073423;28;20259;-77
2022/05/25 07:26:19;;;;;;;3.17;1.80;;;16.60;84.70;;;;;;5072745;28;20579;-77
2022/05/25 07:28:46;;;;;;;6.80;1.90;;;16.50;84.70;;;;;;5071576;28;20267;-77
2022/05/25 07:31:24;;;;;;;3.67;1.60;;;16.40;84.70;;;;;;5072403;28;20586;-77
2022/05/25 07:34:10;;;;;;;7.77;1.97;;;16.40;84.70;;;;;;5070586;28;20173;-76
2022/05/25 07:36:40;;;;;;;5.07;2.20;;;16.30;84.70;;;;;;5086110;28;20403;-76
2022/05/25 07:39:13;;;;;;;9.27;2.13;;;16.20;85.00;;;;;;5059091;28;20206;-76
2022/05/25 07:41:46;;;;;;;11.10;2.40;;;16.20;85.70;;;;;;5071816;28;20189;-76
2022/05/25 07:44:23;;;;;;;6.87;1.93;;;16.20;85.60;;;;;;5083139;28;20553;-78
2022/05/25 07:46:55;;;;;;;5.13;2.30;;;16.10;85.90;;;;;;5090705;28;20198;-77
2022/05/25 07:49:23;;;;;;;2.93;2.10;;;16.10;86.10;;;;;;5081660;28;20184;-77
2022/05/25 07:51:53;;;;;;;10.43;2.10;;;16.00;86.30;;;;;;5069600;28;20635;-78
2022/05/25 07:54:20;;;;;;;5.30;1.97;;;16.00;86.50;;;;;;5072323;28;20480;-78
2022/05/25 07:56:48;;;;;;;5.63;2.17;;;15.90;86.40;;;;;;5075528;28;20201;-79
2022/05/25 07:59:17;;;;;;;4.30;2.10;;;15.90;86.80;;;;;;5073034;28;20177;-79
2022/05/25 08:07:27;;;;;;;5.30;1.87;;;15.80;87.40;;;;;;5084695;28;20188;-77
2022/05/25 08:10:00;;;;;;;4.67;1.80;;;15.80;87.30;;;;;;5081399;28;20276;-77
2022/05/25 08:12:30;;;;;;;5.27;1.90;;;15.80;87.40;;;;;;5078120;28;20176;-77
2022/05/25 08:14:57;;;;;;;5.53;1.97;;;15.70;87.20;;;;;;5072187;28;20958;-76
2022/05/25 08:17:24;;;;;;;3.27;1.80;;;15.70;87.20;;;;;;5064528;28;20197;-77
2022/05/25 08:19:52;;;;;;;5.93;2.10;;;15.70;87.10;;;;;;5071749;28;20167;-77
2022/05/25 08:22:19;;;;;;;8.17;2.30;;;15.60;87.10;;;;;;5075468;28;20209;-77
2022/05/25 08:24:46;;;;;;;4.53;2.23;;;15.70;87.20;;;;;;5075464;28;20210;-78
2022/05/25 08:27:14;;;;;;;7.90;2.63;;;15.50;87.30;;;;;;5075011;28;20666;-78
2022/05/25 08:29:41;;;;;;;8.73;3.00;;;15.50;87.40;;;;;;5076143;28;20203;-78
2022/05/25 08:32:09;;;;;;;6.97;3.33;;;15.40;87.30;;;;;;5070719;28;20238;-77
2022/05/25 08:34:37;;;;;;;7.20;2.87;;;15.40;87.70;;;;;;5076698;28;20173;-77
2022/05/25 08:37:04;;;;;;;8.83;3.50;;;15.40;87.90;;;;;;5074345;28;20261;-77
2022/05/25 08:39:32;;;;;;;6.30;2.23;;;15.30;87.90;;;;;;5072004;28;20672;-78
2022/05/25 08:42:05;;;;;;;4.50;2.10;;;15.30;88.00;;;;;;5072039;28;20209;-77
2022/05/25 08:44:33;;;;;;;4.77;1.83;;;15.30;88.00;;;;;;5074102;28;20326;-77
2022/05/25 08:47:05;;;;;;;7.50;2.40;;;15.20;88.10;;;;;;5074213;28;20697;-77
2022/05/25 08:49:33;;;;;;;3.60;2.50;;;15.20;88.30;;;;;;5074200;28;20636;-78
2022/05/25 08:52:06;;;;;;;4.97;2.70;;;15.10;88.60;;;;;;5076850;28;20913;-77
2022/05/25 08:54:37;;;;;;;6.47;2.33;;;15.10;88.50;;;;;;5096338;28;20182;-78
2022/05/25 08:57:12;;;;;;;4.27;2.50;;;15.00;88.70;;;;;;5096372;28;20275;-78
2022/05/25 08:59:48;;;;;;;8.07;2.80;;;15.10;88.80;;;;;;5083237;28;20190;-78
2022/05/25 09:02:46;;;;;;;7.00;3.17;;;15.00;88.80;;;;;;5075426;28;20172;-78
2022/05/25 09:05:18;;;;;;;7.33;3.63;;;15.00;88.80;;;;;;5075759;28;20287;-78
2022/05/25 09:07:56;;;;;;;5.97;3.33;;;15.00;88.90;;;;;;5074277;28;20517;-77
2022/05/25 09:10:26;;;;;;;5.37;3.17;;;15.00;89.10;;;;;;5071506;28;20187;-77
2022/05/25 09:13:02;;;;;;;9.33;3.20;;;14.90;89.10;;;;;;5073105;28;20183;-77
2022/05/25 09:15:35;;;;;;;6.20;3.00;;;14.90;89.20;;;;;;5070131;28;20215;-77
2022/05/25 09:18:05;;;;;;;8.77;3.50;;;14.90;89.40;;;;;;5070650;28;20260;-77
2022/05/25 09:20:37;;;;;;;6.83;3.53;;;14.90;89.30;;;;;;5073031;28;20213;-77
2022/05/25 09:23:05;;;;;;;7.87;3.63;;;14.90;89.40;;;;;;5075969;28;20185;-77
2022/05/25 09:25:34;;;;;;;9.33;3.83;;;14.80;89.30;;;;;;5090443;28;20218;-77
2022/05/25 09:28:23;;;;;;;11.67;3.90;;;14.80;89.60;;;;;;5085375;28;20703;-77
2022/05/25 09:30:56;;;;;;;13.20;4.03;;;14.80;89.70;;;;;;5074465;28;20267;-77
2022/05/25 09:33:41;;;;;;;8.43;4.57;;;14.80;89.60;;;;;;5074929;28;20175;-77
2022/05/25 09:36:21;;;;;;;6.37;4.00;;;14.80;89.80;;;;;;5073148;28;20175;-77
2022/05/25 09:39:03;;;;;;;7.37;3.33;;;14.80;89.80;;;;;;5075106;28;20172;-77
2022/05/25 09:41:34;;;;;;;8.67;3.27;;;14.80;89.80;;;;;;5072930;28;20182;-77
2022/05/25 09:44:06;;;;;;;7.97;3.80;;;14.70;89.90;;;;;;5074779;28;20294;-77
2022/05/25 09:46:40;;;;;;;6.27;3.83;;;14.70;90.00;;;;;;5074716;28;20218;-77
2022/05/25 09:49:11;;;;;;;8.13;4.13;;;14.70;90.20;;;;;;5075167;28;20195;-77
2022/05/25 09:51:50;;;;;;;9.07;4.77;;;14.70;90.10;;;;;;5072002;28;20191;-78
2022/05/25 09:54:28;;;;;;;9.57;4.63;;;14.70;90.30;;;;;;5073192;28;20183;-77
2022/05/25 09:57:06;;;;;;;12.63;5.37;;;14.70;90.30;;;;;;5066894;28;20272;-77
2022/05/25 10:00:02;;;;;;;9.53;5.00;;;14.70;90.40;;;;;;5070983;28;20226;-77
2022/05/25 10:02:43;;;;;;;9.13;5.37;;;14.70;90.20;;;;;;5073329;28;20196;-77
2022/05/25 10:05:24;;;;;;;12.37;6.27;;;14.70;90.30;;;;;;5072551;28;20224;-77
2022/05/25 10:08:03;;;;;;;10.33;6.23;;;14.60;90.10;;;;;;5069598;28;20193;-77
2022/05/25 10:10:50;;;;;;;10.40;6.00;;;14.60;90.50;;;;;;5061553;28;20634;-76
2022/05/25 10:13:22;;;;;;;11.10;5.57;;;14.60;90.40;;;;;;5059198;28;20183;-77
2022/05/25 10:15:51;;;;;;;10.70;5.43;;;14.60;90.50;;;;;;5072012;28;20176;-77
2022/05/25 10:18:37;;;;;;;10.87;5.83;;;14.60;90.40;;;;;;5073813;28;20183;-77
2022/05/25 10:21:07;;;;;;;9.30;5.83;;;14.50;90.50;;;;;;5072156;28;20179;-77
2022/05/25 10:23:40;;;;;;;11.83;6.33;;;14.50;90.60;;;;;;5073832;28;20182;-77
2022/05/25 10:26:19;;;;;;;13.20;6.73;;;14.60;90.80;;;;;;5070276;28;20210;-77
2022/05/25 10:28:59;;;;;;;19.80;14.17;;;14.60;90.60;;;;;;5068541;28;20187;-77
2022/05/25 10:37:11;;;;;;;11.07;7.43;;;14.50;90.90;;;;;;5074380;28;20191;-77
2022/05/25 10:39:43;;;;;;;14.20;8.10;;;14.50;91.00;;;;;;5083910;28;20229;-78
2022/05/25 10:42:23;;;;;;;12.60;7.20;;;14.50;91.00;;;;;;5060326;28;20245;-77
2022/05/25 10:45:09;;;;;;;10.83;6.83;;;14.40;90.90;;;;;;5053811;28;20286;-78
2022/05/25 10:51:10;;;;;;;11.40;6.90;;;14.20;91.00;;;;;;5053392;28;20540;-77
2022/05/25 10:57:01;;;;;;;7.93;6.30;;;14.20;91.40;;;;;;5073139;28;20182;-80
2022/05/25 11:00:03;;;;;;;9.03;6.30;;;14.10;91.80;;;;;;5073580;28;20225;-78
2022/05/25 11:02:43;;;;;;;15.57;5.77;;;14.10;91.60;;;;;;5072873;28;20182;-78
2022/05/25 11:05:45;;;;;;;10.60;6.17;;;14.00;91.80;;;;;;5070929;28;20215;-78
2022/05/25 11:08:25;;;;;;;9.27;6.33;;;14.10;92.10;;;;;;5066543;28;20187;-78
2022/05/25 11:11:11;;;;;;;10.53;6.17;;;14.10;92.00;;;;;;5076082;28;20626;-78
2022/05/25 11:14:04;;;;;;;10.07;6.07;;;14.10;91.90;;;;;;5071359;28;20186;-78
2022/05/25 11:16:42;;;;;;;13.57;6.30;;;14.00;92.00;;;;;;5073464;28;20171;-78
2022/05/25 11:19:33;;;;;;;8.70;6.07;;;14.00;92.20;;;;;;5078199;28;20183;-79
2022/05/25 11:22:23;;;;;;;15.30;6.83;;;13.90;92.10;;;;;;5086097;28;20277;-79
2022/05/25 11:25:19;;;;;;;12.90;6.53;;;13.90;92.30;;;;;;5071579;28;20361;-78
2022/05/25 11:28:13;;;;;;;16.00;6.87;;;13.90;92.50;;;;;;5054790;28;20174;-78
2022/05/25 11:30:46;;;;;;;12.40;6.33;;;14.00;92.60;;;;;;5083159;28;20180;-78
2022/05/25 11:33:23;;;;;;;10.63;6.80;;;14.00;92.50;;;;;;5077736;28;20182;-79
2022/05/25 11:36:05;;;;;;;11.10;6.80;;;14.00;92.70;;;;;;5069065;28;20537;-79
2022/05/25 11:38:56;;;;;;;15.37;6.47;;;14.00;92.60;;;;;;5072542;28;20228;-78
2022/05/25 11:41:53;;;;;;;11.33;5.63;;;14.00;92.60;;;;;;5073344;28;20210;-79
2022/05/25 11:44:38;;;;;;;10.67;6.13;;;14.00;92.40;;;;;;5062098;28;20227;-80
2022/05/25 11:47:30;;;;;;;15.53;7.30;;;14.00;92.50;;;;;;5066068;28;20851;-78
2022/05/25 11:50:03;;;;;;;10.80;6.53;;;14.00;92.50;;;;;;5055853;28;20185;-78
2022/05/25 11:52:56;;;;;;;16.50;6.53;;;13.90;92.30;;;;;;5071631;28;20206;-77
2022/05/25 11:55:47;;;;;;;11.80;5.97;;;13.90;92.30;;;;;;5072587;28;20186;-79
2022/05/25 11:58:36;;;;;;;10.93;6.03;;;13.90;92.20;;;;;;5070078;28;20681;-77
2022/05/25 12:01:25;;;;;;;9.73;6.20;;;13.90;92.20;;;;;;5072177;28;20202;-79
2022/05/25 12:04:17;;;;;;;12.20;7.10;;;13.80;92.10;;;;;;5078981;28;20171;-78
2022/05/25 12:07:04;;;;;;;11.73;6.23;;;13.80;92.10;;;;;;5067842;28;20242;-79
2022/05/25 12:09:31;;;;;;;11.33;5.90;;;13.80;92.10;;;;;;5069648;28;20178;-79
2022/05/25 12:12:05;;;;;;;10.90;6.20;;;13.70;92.30;;;;;;5072320;28;20183;-78
2022/05/25 12:14:58;;;;;;;9.90;6.10;;;13.80;92.40;;;;;;5065091;28;20214;-79
2022/05/25 12:17:43;;;;;;;13.20;6.20;;;13.80;92.50;;;;;;5052522;28;21094;-80
2022/05/25 12:20:14;;;;;;;8.03;5.93;;;13.70;92.30;;;;;;5088353;28;20182;-78
2022/05/25 12:22:53;;;;;;;9.17;5.70;;;13.70;92.30;;;;;;5079825;28;20190;-79
2022/05/25 12:25:22;;;;;;;8.93;6.33;;;13.70;92.40;;;;;;5072797;28;20297;-78
2022/05/25 12:27:53;;;;;;;9.23;5.50;;;13.70;92.40;;;;;;5071775;28;20183;-78
2022/05/25 12:30:40;;;;;;;12.70;6.43;;;13.60;92.30;;;;;;5070652;28;20336;-78
2022/05/25 12:33:10;;;;;;;9.00;6.30;;;13.50;92.40;;;;;;5070613;28;20660;-77
2022/05/25 12:35:40;;;;;;;10.10;5.97;;;13.50;92.70;;;;;;5071559;28;20183;-78
2022/05/25 12:38:10;;;;;;;9.70;6.23;;;13.50;92.70;;;;;;5071081;28;20207;-78
2022/05/25 12:40:46;;;;;;;9.40;6.13;;;13.50;92.70;;;;;;5070488;28;20184;-78
2022/05/25 12:43:37;;;;;;;12.40;5.93;;;13.50;92.80;;;;;;5061389;28;20230;-78
2022/05/25 12:49:00;;;;;;;11.50;6.40;;;13.40;93.00;;;;;;5073282;28;20715;-78
2022/05/25 12:51:31;;;;;;;11.00;5.77;;;13.40;92.80;;;;;;5070009;28;20203;-79
2022/05/25 12:54:04;;;;;;;8.40;5.50;;;13.40;92.90;;;;;;5068409;28;20179;-79
2022/05/25 12:56:38;;;;;;;11.70;5.93;;;13.40;93.00;;;;;;5072167;28;20183;-78
2022/05/25 12:59:12;;;;;;;9.20;5.60;;;13.40;93.00;;;;;;5072704;28;20190;-78
2022/05/25 13:02:01;;;;;;;8.60;5.80;;;13.40;93.10;;;;;;5072468;28;20536;-79
2022/05/25 13:05:02;;;;;;;9.93;5.93;;;13.30;92.80;;;;;;5074913;28;20183;-79
2022/05/25 13:07:45;;;;;;;10.20;5.50;;;13.30;93.00;;;;;;5073983;28;20699;-79
2022/05/25 13:10:20;;;;;;;9.57;5.50;;;13.30;93.10;;;;;;5075370;28;20179;-80
2022/05/25 13:12:56;;;;;;;11.03;5.60;;;13.20;93.00;;;;;;5075980;28;20177;-79
2022/05/25 13:15:23;;;;;;;12.60;6.17;;;13.20;93.10;;;;;;5075702;28;20586;-80
2022/05/25 13:17:58;;;;;;;9.43;5.90;;;13.20;93.10;;;;;;5074900;28;20180;-79
2022/05/25 13:20:46;;;;;;;11.73;6.10;;;13.20;93.00;;;;;;5074362;28;20233;-78
2022/05/25 13:23:51;;;;;;;12.00;6.90;;;13.20;93.00;;;;;;5076080;28;20183;-79
2022/05/25 13:26:30;;;;;;;10.63;6.00;;;13.10;93.10;;;;;;5075597;28;20220;-79
2022/05/25 13:29:09;;;;;;;11.23;7.00;;;13.20;93.40;;;;;;5055566;28;20176;-79
2022/05/25 13:31:43;;;;;;;15.67;6.90;;;13.20;93.40;;;;;;5068484;28;20179;-79
2022/05/25 13:34:18;;;;;;;11.53;6.37;;;13.20;93.30;;;;;;5082018;28;20256;-81
2022/05/25 13:36:55;;;;;;;14.30;7.33;;;13.00;93.30;;;;;;5078715;28;20178;-80
2022/05/25 13:39:25;;;;;;;8.37;6.77;;;13.10;93.40;;;;;;5072736;28;20187;-79
2022/05/25 13:42:14;;;;;;;12.67;6.53;;;13.10;93.50;;;;;;5075327;28;20198;-80
2022/05/25 13:44:48;;;;;;;8.80;6.83;;;13.00;93.40;;;;;;5055104;28;20195;-79
2022/05/25 13:47:21;;;;;;;9.43;6.97;;;13.00;93.40;;;;;;5060184;28;20645;-77
2022/05/25 13:49:52;;;;;;;16.33;12.63;;;13.00;93.60;;;;;;5074986;28;20692;-78
2022/05/25 13:52:24;;;;;;;15.03;11.47;;;13.00;93.60;;;;;;5075203;28;20183;-77
2022/05/25 13:55:16;;;;;;;10.67;7.87;;;13.00;93.60;;;;;;5075290;28;20175;-79